sensor_id;sensor_type;location;lat;lon;timestamp;temperature;humidity
1391;DHT22;690;51.454;7.194;2022-12-04T00:01:57;3.70;1.00
1391;DHT22;690;51.454;7.194;2022-12-04T00:04:24;3.70;1.00
1391;DHT22;690;51.454;7.194;2022-12-04T00:06:53;3.70;1.00
1391;DHT22;690;51.454;7.194;2022-12-04T00:09:20;3.60;1.00
1391;DHT22;690;51.454;7.194;2022-12-04T00:11:49;3.60;1.00
1391;DHT22;690;51.454;7.194;2022-12-04T00:14:16;3.60;1.00
1391;DHT22;690;51.454;7.194;2022-12-04T00:16:42;3.60;1.00
1391;DHT22;690;51.454;7.194;2022-12-04T00:19:09;3.60;1.00
1391;DHT22;690;51.454;7.194;2022-12-04T00:21:36;3.60;1.00
1391;DHT22;690;51.454;7.194;2022-12-04T00:24:04;3.60;1.00
1391;DHT22;690;51.454;7.194;2022-12-04T00:26:31;3.60;1.00
1391;DHT22;690;51.454;7.194;2022-12-04T00:28:59;3.60;1.00
1391;DHT22;690;51.454;7.194;2022-12-04T00:31:28;3.60;1.00
1391;DHT22;690;51.454;7.194;2022-12-04T00:33:56;3.70;1.00
1391;DHT22;690;51.454;7.194;2022-12-04T00:36:25;3.60;1.00
1391;DHT22;690;51.454;7.194;2022-12-04T00:38:53;3.60;1.00
1391;DHT22;690;51.454;7.194;2022-12-04T00:41:22;3.60;1.00
1391;DHT22;690;51.454;7.194;2022-12-04T00:43:49;3.70;1.00
1391;DHT22;690;51.454;7.194;2022-12-04T00:46:17;3.70;1.00
1391;DHT22;690;51.454;7.194;2022-12-04T00:48:45;3.70;1.00
1391;DHT22;690;51.454;7.194;2022-12-04T00:51:14;3.70;1.00
1391;DHT22;690;51.454;7.194;2022-12-04T00:53:41;3.60;1.00
1391;DHT22;690;51.454;7.194;2022-12-04T00:56:10;3.60;1.00
1391;DHT22;690;51.454;7.194;2022-12-04T00:58:38;3.60;1.00
1391;DHT22;690;51.454;7.194;2022-12-04T01:01:07;3.60;1.00
1391;DHT22;690;51.454;7.194;2022-12-04T01:03:36;3.60;1.00
1391;DHT22;690;51.454;7.194;2022-12-04T01:06:04;3.60;1.00
1391;DHT22;690;51.454;7.194;2022-12-04T01:08:32;3.60;1.00
1391;DHT22;690;51.454;7.194;2022-12-04T01:10:59;3.60;1.00
1391;DHT22;690;51.454;7.194;2022-12-04T01:13:26;3.60;1.00
1391;DHT22;690;51.454;7.194;2022-12-04T01:15:53;3.50;1.00
1391;DHT22;690;51.454;7.194;2022-12-04T01:18:19;3.50;1.00
1391;DHT22;690;51.454;7.194;2022-12-04T01:20:49;3.50;1.00
1391;DHT22;690;51.454;7.194;2022-12-04T01:23:17;3.50;1.00
1391;DHT22;690;51.454;7.194;2022-12-04T01:25:52;3.50;1.00
1391;DHT22;690;51.454;7.194;2022-12-04T01:28:19;3.50;1.00
1391;DHT22;690;51.454;7.194;2022-12-04T01:30:57;3.60;1.00
1391;DHT22;690;51.454;7.194;2022-12-04T01:33:24;3.60;1.00
1391;DHT22;690;51.454;7.194;2022-12-04T01:35:56;3.60;1.00
1391;DHT22;690;51.454;7.194;2022-12-04T01:38:24;3.60;1.00
1391;DHT22;690;51.454;7.194;2022-12-04T01:40:52;3.60;1.00
1391;DHT22;690;51.454;7.194;2022-12-04T01:43:19;3.60;1.00
1391;DHT22;690;51.454;7.194;2022-12-04T01:45:47;3.60;1.00
1391;DHT22;690;51.454;7.194;2022-12-04T01:48:20;3.60;1.00
1391;DHT22;690;51.454;7.194;2022-12-04T01:50:51;3.60;1.00
1391;DHT22;690;51.454;7.194;2022-12-04T01:53:21;3.60;1.00
1391;DHT22;690;51.454;7.194;2022-12-04T01:55:48;3.60;1.00
1391;DHT22;690;51.454;7.194;2022-12-04T01:58:16;3.60;1.00
1391;DHT22;690;51.454;7.194;2022-12-04T02:00:49;3.60;1.00
1391;DHT22;690;51.454;7.194;2022-12-04T02:03:17;3.60;1.00
1391;DHT22;690;51.454;7.194;2022-12-04T02:05:44;3.60;1.00
1391;DHT22;690;51.454;7.194;2022-12-04T02:08:11;3.60;1.00
1391;DHT22;690;51.454;7.194;2022-12-04T02:10:45;3.60;1.00
1391;DHT22;690;51.454;7.194;2022-12-04T02:13:20;3.60;1.00
1391;DHT22;690;51.454;7.194;2022-12-04T02:15:51;3.60;1.00
1391;DHT22;690;51.454;7.194;2022-12-04T02:18:28;3.60;1.00
1391;DHT22;690;51.454;7.194;2022-12-04T02:20:59;3.60;1.00
1391;DHT22;690;51.454;7.194;2022-12-04T02:26:40;3.60;1.00
1391;DHT22;690;51.454;7.194;2022-12-04T02:29:20;3.60;1.00
1391;DHT22;690;51.454;7.194;2022-12-04T02:31:52;3.60;1.00
1391;DHT22;690;51.454;7.194;2022-12-04T02:34:25;3.60;1.00
1391;DHT22;690;51.454;7.194;2022-12-04T02:36:56;3.60;1.00
1391;DHT22;690;51.454;7.194;2022-12-04T02:39:29;3.60;1.00
1391;DHT22;690;51.454;7.194;2022-12-04T02:42:03;3.70;1.00
1391;DHT22;690;51.454;7.194;2022-12-04T02:44:35;3.70;1.00
1391;DHT22;690;51.454;7.194;2022-12-04T02:47:08;3.70;1.00
1391;DHT22;690;51.454;7.194;2022-12-04T02:49:40;3.70;1.00
1391;DHT22;690;51.454;7.194;2022-12-04T02:52:12;3.70;1.00
1391;DHT22;690;51.454;7.194;2022-12-04T02:54:43;3.70;1.00
1391;DHT22;690;51.454;7.194;2022-12-04T02:57:14;3.70;1.00
1391;DHT22;690;51.454;7.194;2022-12-04T02:59:45;3.70;1.00
1391;DHT22;690;51.454;7.194;2022-12-04T03:02:16;3.70;1.00
1391;DHT22;690;51.454;7.194;2022-12-04T03:04:45;3.70;1.00
1391;DHT22;690;51.454;7.194;2022-12-04T03:07:19;3.70;1.00
1391;DHT22;690;51.454;7.194;2022-12-04T03:09:52;3.70;1.00
1391;DHT22;690;51.454;7.194;2022-12-04T03:12:23;3.70;1.00
1391;DHT22;690;51.454;7.194;2022-12-04T03:14:56;3.70;1.00
1391;DHT22;690;51.454;7.194;2022-12-04T03:17:29;3.70;1.00
1391;DHT22;690;51.454;7.194;2022-12-04T03:20:00;3.70;1.00
1391;DHT22;690;51.454;7.194;2022-12-04T03:22:30;3.70;1.00
1391;DHT22;690;51.454;7.194;2022-12-04T03:25:02;3.80;1.00
1391;DHT22;690;51.454;7.194;2022-12-04T03:27:35;3.80;1.00
1391;DHT22;690;51.454;7.194;2022-12-04T03:30:08;3.80;1.00
1391;DHT22;690;51.454;7.194;2022-12-04T03:32:41;3.80;1.00
1391;DHT22;690;51.454;7.194;2022-12-04T03:35:13;3.70;1.00
1391;DHT22;690;51.454;7.194;2022-12-04T03:37:48;3.70;1.00
1391;DHT22;690;51.454;7.194;2022-12-04T03:40:21;3.70;1.00
1391;DHT22;690;51.454;7.194;2022-12-04T03:42:54;3.60;1.00
1391;DHT22;690;51.454;7.194;2022-12-04T03:45:26;3.70;1.00
1391;DHT22;690;51.454;7.194;2022-12-04T03:47:57;3.70;1.00
1391;DHT22;690;51.454;7.194;2022-12-04T03:50:32;3.80;1.00
1391;DHT22;690;51.454;7.194;2022-12-04T03:53:05;3.80;1.00
1391;DHT22;690;51.454;7.194;2022-12-04T03:55:38;3.80;1.00
1391;DHT22;690;51.454;7.194;2022-12-04T03:58:08;3.80;1.00
1391;DHT22;690;51.454;7.194;2022-12-04T04:00:40;3.80;1.00
1391;DHT22;690;51.454;7.194;2022-12-04T04:03:09;3.80;1.00
1391;DHT22;690;51.454;7.194;2022-12-04T04:05:41;3.80;1.00
1391;DHT22;690;51.454;7.194;2022-12-04T04:08:09;3.80;1.00
1391;DHT22;690;51.454;7.194;2022-12-04T04:11:00;3.80;1.00
1391;DHT22;690;51.454;7.194;2022-12-04T04:13:34;3.80;1.00
1391;DHT22;690;51.454;7.194;2022-12-04T04:16:23;3.80;1.00
1391;DHT22;690;51.454;7.194;2022-12-04T04:19:10;3.80;1.00
1391;DHT22;690;51.454;7.194;2022-12-04T04:21:58;3.80;1.00
1391;DHT22;690;51.454;7.194;2022-12-04T04:24:45;3.80;1.00
1391;DHT22;690;51.454;7.194;2022-12-04T04:27:13;3.80;1.00
1391;DHT22;690;51.454;7.194;2022-12-04T04:29:41;3.70;1.00
1391;DHT22;690;51.454;7.194;2022-12-04T04:32:13;3.70;1.00
1391;DHT22;690;51.454;7.194;2022-12-04T04:34:48;3.70;1.00
1391;DHT22;690;51.454;7.194;2022-12-04T04:37:24;3.80;1.00
1391;DHT22;690;51.454;7.194;2022-12-04T04:39:55;3.80;1.00
1391;DHT22;690;51.454;7.194;2022-12-04T04:42:27;3.80;1.00
1391;DHT22;690;51.454;7.194;2022-12-04T04:45:00;3.80;1.00
1391;DHT22;690;51.454;7.194;2022-12-04T04:47:38;3.80;1.00
1391;DHT22;690;51.454;7.194;2022-12-04T04:50:08;3.80;1.00
1391;DHT22;690;51.454;7.194;2022-12-04T04:52:38;3.80;1.00
1391;DHT22;690;51.454;7.194;2022-12-04T04:55:07;3.80;1.00
1391;DHT22;690;51.454;7.194;2022-12-04T04:57:36;3.70;1.00
1391;DHT22;690;51.454;7.194;2022-12-04T05:00:04;3.80;1.00
1391;DHT22;690;51.454;7.194;2022-12-04T05:02:32;3.80;1.00
1391;DHT22;690;51.454;7.194;2022-12-04T05:04:59;3.80;1.00
1391;DHT22;690;51.454;7.194;2022-12-04T05:07:26;3.80;1.00
1391;DHT22;690;51.454;7.194;2022-12-04T05:09:53;3.80;1.00
1391;DHT22;690;51.454;7.194;2022-12-04T05:12:20;3.70;1.00
1391;DHT22;690;51.454;7.194;2022-12-04T05:14:48;3.70;1.00
1391;DHT22;690;51.454;7.194;2022-12-04T05:17:15;3.70;1.00
1391;DHT22;690;51.454;7.194;2022-12-04T05:19:43;3.70;1.00
1391;DHT22;690;51.454;7.194;2022-12-04T05:22:19;3.80;1.00
1391;DHT22;690;51.454;7.194;2022-12-04T05:24:46;3.70;1.00
1391;DHT22;690;51.454;7.194;2022-12-04T05:27:13;3.70;1.00
1391;DHT22;690;51.454;7.194;2022-12-04T05:29:39;3.70;1.00
1391;DHT22;690;51.454;7.194;2022-12-04T05:32:06;3.70;1.00
1391;DHT22;690;51.454;7.194;2022-12-04T05:34:33;3.70;1.00
1391;DHT22;690;51.454;7.194;2022-12-04T05:37:01;3.80;1.00
1391;DHT22;690;51.454;7.194;2022-12-04T05:39:28;3.80;1.00
1391;DHT22;690;51.454;7.194;2022-12-04T05:41:55;3.80;1.00
1391;DHT22;690;51.454;7.194;2022-12-04T05:44:22;3.80;1.00
1391;DHT22;690;51.454;7.194;2022-12-04T05:46:49;3.80;1.00
1391;DHT22;690;51.454;7.194;2022-12-04T05:49:16;3.80;1.00
1391;DHT22;690;51.454;7.194;2022-12-04T05:51:44;3.80;1.00
1391;DHT22;690;51.454;7.194;2022-12-04T05:54:12;3.80;1.00
1391;DHT22;690;51.454;7.194;2022-12-04T05:56:39;3.80;1.00
1391;DHT22;690;51.454;7.194;2022-12-04T05:59:06;3.80;1.00
1391;DHT22;690;51.454;7.194;2022-12-04T06:01:33;3.80;1.00
1391;DHT22;690;51.454;7.194;2022-12-04T06:03:59;3.80;1.00
1391;DHT22;690;51.454;7.194;2022-12-04T06:06:26;3.70;1.00
1391;DHT22;690;51.454;7.194;2022-12-04T06:08:55;3.80;1.00
1391;DHT22;690;51.454;7.194;2022-12-04T06:11:25;3.80;1.00
1391;DHT22;690;51.454;7.194;2022-12-04T06:13:53;3.70;1.00
1391;DHT22;690;51.454;7.194;2022-12-04T06:16:23;3.70;1.00
1391;DHT22;690;51.454;7.194;2022-12-04T06:18:52;3.60;1.00
1391;DHT22;690;51.454;7.194;2022-12-04T06:21:19;3.70;1.00
1391;DHT22;690;51.454;7.194;2022-12-04T06:23:47;3.60;1.00
1391;DHT22;690;51.454;7.194;2022-12-04T06:26:14;3.70;1.00
1391;DHT22;690;51.454;7.194;2022-12-04T06:28:42;3.70;1.00
1391;DHT22;690;51.454;7.194;2022-12-04T06:31:12;3.70;1.00
1391;DHT22;690;51.454;7.194;2022-12-04T06:33:40;3.60;1.00
1391;DHT22;690;51.454;7.194;2022-12-04T06:36:09;3.60;1.00
1391;DHT22;690;51.454;7.194;2022-12-04T06:38:38;3.60;1.00
1391;DHT22;690;51.454;7.194;2022-12-04T06:41:05;3.60;1.00
1391;DHT22;690;51.454;7.194;2022-12-04T06:43:33;3.60;1.00
1391;DHT22;690;51.454;7.194;2022-12-04T06:46:03;3.70;1.00
1391;DHT22;690;51.454;7.194;2022-12-04T06:48:31;3.70;1.00
1391;DHT22;690;51.454;7.194;2022-12-04T06:50:59;3.70;1.00
1391;DHT22;690;51.454;7.194;2022-12-04T06:53:26;3.70;1.00
1391;DHT22;690;51.454;7.194;2022-12-04T06:55:55;3.70;1.00
1391;DHT22;690;51.454;7.194;2022-12-04T06:58:22;3.70;1.00
1391;DHT22;690;51.454;7.194;2022-12-04T07:00:49;3.60;1.00
1391;DHT22;690;51.454;7.194;2022-12-04T07:03:17;3.60;1.00
1391;DHT22;690;51.454;7.194;2022-12-04T07:05:45;3.60;1.00
1391;DHT22;690;51.454;7.194;2022-12-04T07:08:12;3.70;1.00
1391;DHT22;690;51.454;7.194;2022-12-04T07:10:39;3.70;1.00
1391;DHT22;690;51.454;7.194;2022-12-04T07:13:07;3.70;1.00
1391;DHT22;690;51.454;7.194;2022-12-04T07:15:35;3.70;1.00
1391;DHT22;690;51.454;7.194;2022-12-04T07:18:03;3.70;1.00
1391;DHT22;690;51.454;7.194;2022-12-04T07:20:31;3.70;1.00
1391;DHT22;690;51.454;7.194;2022-12-04T07:22:58;3.70;1.00
1391;DHT22;690;51.454;7.194;2022-12-04T07:25:25;3.70;1.00
1391;DHT22;690;51.454;7.194;2022-12-04T07:27:54;3.80;1.00
1391;DHT22;690;51.454;7.194;2022-12-04T07:30:20;3.80;1.00
1391;DHT22;690;51.454;7.194;2022-12-04T07:32:47;3.80;1.00
1391;DHT22;690;51.454;7.194;2022-12-04T07:35:14;3.80;1.00
1391;DHT22;690;51.454;7.194;2022-12-04T07:37:42;3.80;1.00
1391;DHT22;690;51.454;7.194;2022-12-04T07:40:10;3.90;1.00
1391;DHT22;690;51.454;7.194;2022-12-04T07:42:37;3.80;1.00
1391;DHT22;690;51.454;7.194;2022-12-04T07:45:05;3.80;1.00
1391;DHT22;690;51.454;7.194;2022-12-04T07:47:34;3.80;1.00
1391;DHT22;690;51.454;7.194;2022-12-04T07:50:01;3.90;1.00
1391;DHT22;690;51.454;7.194;2022-12-04T07:52:28;3.90;1.00
1391;DHT22;690;51.454;7.194;2022-12-04T07:54:56;3.90;1.00
1391;DHT22;690;51.454;7.194;2022-12-04T07:57:23;3.80;1.00
1391;DHT22;690;51.454;7.194;2022-12-04T07:59:50;3.80;1.00
1391;DHT22;690;51.454;7.194;2022-12-04T08:02:17;3.80;1.00
1391;DHT22;690;51.454;7.194;2022-12-04T08:04:45;3.80;1.00
1391;DHT22;690;51.454;7.194;2022-12-04T08:07:12;3.80;1.00
1391;DHT22;690;51.454;7.194;2022-12-04T08:09:39;3.90;1.00
1391;DHT22;690;51.454;7.194;2022-12-04T08:12:07;3.90;1.00
1391;DHT22;690;51.454;7.194;2022-12-04T08:14:34;3.90;1.00
1391;DHT22;690;51.454;7.194;2022-12-04T08:17:01;3.90;1.00
1391;DHT22;690;51.454;7.194;2022-12-04T08:19:28;4.00;1.00
1391;DHT22;690;51.454;7.194;2022-12-04T08:21:55;4.00;1.00
1391;DHT22;690;51.454;7.194;2022-12-04T08:24:22;4.00;1.00
1391;DHT22;690;51.454;7.194;2022-12-04T08:26:48;4.00;1.00
1391;DHT22;690;51.454;7.194;2022-12-04T08:29:17;4.00;1.00
1391;DHT22;690;51.454;7.194;2022-12-04T08:31:44;4.00;1.00
1391;DHT22;690;51.454;7.194;2022-12-04T08:34:10;4.00;1.00
1391;DHT22;690;51.454;7.194;2022-12-04T08:36:37;4.00;1.00
1391;DHT22;690;51.454;7.194;2022-12-04T08:39:04;4.00;1.00
1391;DHT22;690;51.454;7.194;2022-12-04T08:41:31;4.00;1.00
1391;DHT22;690;51.454;7.194;2022-12-04T08:43:58;4.10;1.00
1391;DHT22;690;51.454;7.194;2022-12-04T08:46:27;4.10;1.00
1391;DHT22;690;51.454;7.194;2022-12-04T08:48:54;4.10;1.00
1391;DHT22;690;51.454;7.194;2022-12-04T08:51:23;4.20;1.00
1391;DHT22;690;51.454;7.194;2022-12-04T08:53:52;4.20;1.00
1391;DHT22;690;51.454;7.194;2022-12-04T08:56:21;4.20;1.00
1391;DHT22;690;51.454;7.194;2022-12-04T08:58:48;4.20;1.00
1391;DHT22;690;51.454;7.194;2022-12-04T09:01:15;4.20;1.00
1391;DHT22;690;51.454;7.194;2022-12-04T09:03:43;4.20;1.00
1391;DHT22;690;51.454;7.194;2022-12-04T09:06:12;4.20;1.00
1391;DHT22;690;51.454;7.194;2022-12-04T09:08:39;4.20;1.00
1391;DHT22;690;51.454;7.194;2022-12-04T09:11:09;4.30;1.00
1391;DHT22;690;51.454;7.194;2022-12-04T09:13:37;4.30;1.00
1391;DHT22;690;51.454;7.194;2022-12-04T09:16:06;4.30;1.00
1391;DHT22;690;51.454;7.194;2022-12-04T09:18:34;4.30;1.00
1391;DHT22;690;51.454;7.194;2022-12-04T09:21:05;4.30;1.00
1391;DHT22;690;51.454;7.194;2022-12-04T09:23:33;4.30;1.00
1391;DHT22;690;51.454;7.194;2022-12-04T09:26:00;4.30;1.00
1391;DHT22;690;51.454;7.194;2022-12-04T09:28:27;4.30;1.00
1391;DHT22;690;51.454;7.194;2022-12-04T09:30:58;4.30;1.00
1391;DHT22;690;51.454;7.194;2022-12-04T09:33:25;4.30;1.00
1391;DHT22;690;51.454;7.194;2022-12-04T09:35:52;4.20;1.00
1391;DHT22;690;51.454;7.194;2022-12-04T09:38:21;4.20;1.00
1391;DHT22;690;51.454;7.194;2022-12-04T09:40:54;4.30;1.00
1391;DHT22;690;51.454;7.194;2022-12-04T09:43:28;4.30;1.00
1391;DHT22;690;51.454;7.194;2022-12-04T09:45:59;4.30;1.00
1391;DHT22;690;51.454;7.194;2022-12-04T09:48:31;4.30;1.00
1391;DHT22;690;51.454;7.194;2022-12-04T09:51:00;4.30;1.00
1391;DHT22;690;51.454;7.194;2022-12-04T09:53:39;4.30;1.00
1391;DHT22;690;51.454;7.194;2022-12-04T09:56:11;4.40;1.00
1391;DHT22;690;51.454;7.194;2022-12-04T09:58:41;4.40;1.00
1391;DHT22;690;51.454;7.194;2022-12-04T10:01:18;4.40;1.00
1391;DHT22;690;51.454;7.194;2022-12-04T10:03:46;4.40;1.00
1391;DHT22;690;51.454;7.194;2022-12-04T10:06:18;4.40;1.00
1391;DHT22;690;51.454;7.194;2022-12-04T10:08:54;4.50;1.00
1391;DHT22;690;51.454;7.194;2022-12-04T10:11:29;4.50;1.00
1391;DHT22;690;51.454;7.194;2022-12-04T10:14:15;4.50;1.00
1391;DHT22;690;51.454;7.194;2022-12-04T10:16:56;4.50;1.00
1391;DHT22;690;51.454;7.194;2022-12-04T10:19:32;4.50;1.00
1391;DHT22;690;51.454;7.194;2022-12-04T10:22:10;4.50;1.00
1391;DHT22;690;51.454;7.194;2022-12-04T10:24:43;4.50;1.00
1391;DHT22;690;51.454;7.194;2022-12-04T10:27:20;4.60;1.00
1391;DHT22;690;51.454;7.194;2022-12-04T10:29:51;4.60;1.00
1391;DHT22;690;51.454;7.194;2022-12-04T10:32:21;4.60;1.00
1391;DHT22;690;51.454;7.194;2022-12-04T10:34:52;4.70;1.00
1391;DHT22;690;51.454;7.194;2022-12-04T10:37:22;4.60;1.00
1391;DHT22;690;51.454;7.194;2022-12-04T10:39:53;4.60;1.00
1391;DHT22;690;51.454;7.194;2022-12-04T10:42:26;4.60;1.00
1391;DHT22;690;51.454;7.194;2022-12-04T10:44:56;4.60;1.00
1391;DHT22;690;51.454;7.194;2022-12-04T10:47:23;4.70;1.00
1391;DHT22;690;51.454;7.194;2022-12-04T10:49:57;4.70;1.00
1391;DHT22;690;51.454;7.194;2022-12-04T10:52:25;4.80;1.00
1391;DHT22;690;51.454;7.194;2022-12-04T10:54:56;4.80;1.00
1391;DHT22;690;51.454;7.194;2022-12-04T10:57:34;4.80;1.00
1391;DHT22;690;51.454;7.194;2022-12-04T11:00:04;4.80;1.00
1391;DHT22;690;51.454;7.194;2022-12-04T11:02:45;4.80;1.00
1391;DHT22;690;51.454;7.194;2022-12-04T11:05:23;4.80;1.00
1391;DHT22;690;51.454;7.194;2022-12-04T11:07:51;4.80;1.00
1391;DHT22;690;51.454;7.194;2022-12-04T11:10:24;4.80;1.00
1391;DHT22;690;51.454;7.194;2022-12-04T11:12:54;4.80;1.00
1391;DHT22;690;51.454;7.194;2022-12-04T11:15:22;4.80;1.00
1391;DHT22;690;51.454;7.194;2022-12-04T11:17:49;4.80;1.00
1391;DHT22;690;51.454;7.194;2022-12-04T11:20:20;4.80;1.00
1391;DHT22;690;51.454;7.194;2022-12-04T11:22:50;4.80;1.00
1391;DHT22;690;51.454;7.194;2022-12-04T11:25:20;4.90;1.00
1391;DHT22;690;51.454;7.194;2022-12-04T11:27:49;4.90;1.00
1391;DHT22;690;51.454;7.194;2022-12-04T11:30:21;4.90;1.00
1391;DHT22;690;51.454;7.194;2022-12-04T11:32:51;5.00;1.00
1391;DHT22;690;51.454;7.194;2022-12-04T11:35:21;5.00;1.00
1391;DHT22;690;51.454;7.194;2022-12-04T11:37:54;5.00;1.00
1391;DHT22;690;51.454;7.194;2022-12-04T11:40:24;5.00;1.00
1391;DHT22;690;51.454;7.194;2022-12-04T11:42:59;5.00;1.00
1391;DHT22;690;51.454;7.194;2022-12-04T11:45:26;5.00;1.00
1391;DHT22;690;51.454;7.194;2022-12-04T11:47:54;5.00;1.00
1391;DHT22;690;51.454;7.194;2022-12-04T11:50:28;5.00;1.00
1391;DHT22;690;51.454;7.194;2022-12-04T11:53:04;5.00;1.00
1391;DHT22;690;51.454;7.194;2022-12-04T11:55:48;5.00;1.00
1391;DHT22;690;51.454;7.194;2022-12-04T11:58:30;5.00;1.00
1391;DHT22;690;51.454;7.194;2022-12-04T12:01:12;5.00;1.00
1391;DHT22;690;51.454;7.194;2022-12-04T12:03:55;5.00;1.00
1391;DHT22;690;51.454;7.194;2022-12-04T12:06:33;5.10;1.00
1391;DHT22;690;51.454;7.194;2022-12-04T12:09:21;5.20;1.00
1391;DHT22;690;51.454;7.194;2022-12-04T12:11:55;5.10;1.00
1391;DHT22;690;51.454;7.194;2022-12-04T12:14:31;5.20;1.00
1391;DHT22;690;51.454;7.194;2022-12-04T12:17:10;5.20;1.00
1391;DHT22;690;51.454;7.194;2022-12-04T12:20:01;5.20;1.00
1391;DHT22;690;51.454;7.194;2022-12-04T12:22:52;5.20;1.00
1391;DHT22;690;51.454;7.194;2022-12-04T12:25:26;5.20;1.00
1391;DHT22;690;51.454;7.194;2022-12-04T12:28:04;5.20;1.00
1391;DHT22;690;51.454;7.194;2022-12-04T12:30:38;5.30;1.00
1391;DHT22;690;51.454;7.194;2022-12-04T12:33:13;5.20;1.00
1391;DHT22;690;51.454;7.194;2022-12-04T12:35:56;5.20;1.00
1391;DHT22;690;51.454;7.194;2022-12-04T12:38:27;5.30;1.00
1391;DHT22;690;51.454;7.194;2022-12-04T12:40:59;5.20;1.00
1391;DHT22;690;51.454;7.194;2022-12-04T12:43:31;5.20;1.00
1391;DHT22;690;51.454;7.194;2022-12-04T12:46:03;5.20;1.00
1391;DHT22;690;51.454;7.194;2022-12-04T12:48:37;5.20;1.00
1391;DHT22;690;51.454;7.194;2022-12-04T12:51:11;5.20;1.00
1391;DHT22;690;51.454;7.194;2022-12-04T12:53:44;5.20;1.00
1391;DHT22;690;51.454;7.194;2022-12-04T12:56:13;5.20;1.00
1391;DHT22;690;51.454;7.194;2022-12-04T12:58:48;5.30;1.00
1391;DHT22;690;51.454;7.194;2022-12-04T13:01:22;5.30;1.00
1391;DHT22;690;51.454;7.194;2022-12-04T13:03:55;5.30;1.00
1391;DHT22;690;51.454;7.194;2022-12-04T13:06:25;5.30;1.00
1391;DHT22;690;51.454;7.194;2022-12-04T13:09:02;5.40;1.00
1391;DHT22;690;51.454;7.194;2022-12-04T13:11:31;5.30;1.00
1391;DHT22;690;51.454;7.194;2022-12-04T13:14:01;5.30;1.00
1391;DHT22;690;51.454;7.194;2022-12-04T13:16:34;5.20;1.00
1391;DHT22;690;51.454;7.194;2022-12-04T13:19:07;5.20;1.00
1391;DHT22;690;51.454;7.194;2022-12-04T13:21:39;5.20;1.00
1391;DHT22;690;51.454;7.194;2022-12-04T13:24:36;5.20;1.00
1391;DHT22;690;51.454;7.194;2022-12-04T13:27:10;5.20;1.00
1391;DHT22;690;51.454;7.194;2022-12-04T13:29:51;5.20;1.00
1391;DHT22;690;51.454;7.194;2022-12-04T13:32:56;5.20;1.00
1391;DHT22;690;51.454;7.194;2022-12-04T13:35:36;5.30;1.00
1391;DHT22;690;51.454;7.194;2022-12-04T13:38:15;5.30;1.00
1391;DHT22;690;51.454;7.194;2022-12-04T13:40:44;5.40;1.00
1391;DHT22;690;51.454;7.194;2022-12-04T13:43:26;5.40;1.00
1391;DHT22;690;51.454;7.194;2022-12-04T13:45:56;5.40;1.00
1391;DHT22;690;51.454;7.194;2022-12-04T13:48:29;5.40;1.00
1391;DHT22;690;51.454;7.194;2022-12-04T13:51:21;5.40;1.00
1391;DHT22;690;51.454;7.194;2022-12-04T13:54:00;5.40;1.00
1391;DHT22;690;51.454;7.194;2022-12-04T13:56:29;5.30;1.00
1391;DHT22;690;51.454;7.194;2022-12-04T13:59:01;5.30;1.00
1391;DHT22;690;51.454;7.194;2022-12-04T14:01:34;5.40;1.00
1391;DHT22;690;51.454;7.194;2022-12-04T14:04:03;5.30;1.00
1391;DHT22;690;51.454;7.194;2022-12-04T14:06:34;5.40;1.00
1391;DHT22;690;51.454;7.194;2022-12-04T14:09:06;5.40;1.00
1391;DHT22;690;51.454;7.194;2022-12-04T14:11:42;5.30;1.00
1391;DHT22;690;51.454;7.194;2022-12-04T14:14:23;5.30;1.00
1391;DHT22;690;51.454;7.194;2022-12-04T14:16:53;5.30;1.00
1391;DHT22;690;51.454;7.194;2022-12-04T14:19:31;5.30;1.00
1391;DHT22;690;51.454;7.194;2022-12-04T14:21:59;5.30;1.00
1391;DHT22;690;51.454;7.194;2022-12-04T14:24:31;5.30;1.00
1391;DHT22;690;51.454;7.194;2022-12-04T14:27:00;5.30;1.00
1391;DHT22;690;51.454;7.194;2022-12-04T14:29:43;5.40;1.00
1391;DHT22;690;51.454;7.194;2022-12-04T14:32:16;5.40;1.00
1391;DHT22;690;51.454;7.194;2022-12-04T14:34:44;5.30;1.00
1391;DHT22;690;51.454;7.194;2022-12-04T14:37:20;5.30;1.00
1391;DHT22;690;51.454;7.194;2022-12-04T14:39:49;5.30;1.00
1391;DHT22;690;51.454;7.194;2022-12-04T14:42:22;5.30;1.00
1391;DHT22;690;51.454;7.194;2022-12-04T14:44:53;5.30;1.00
1391;DHT22;690;51.454;7.194;2022-12-04T14:47:32;5.20;1.00
1391;DHT22;690;51.454;7.194;2022-12-04T14:50:17;5.30;1.00
1391;DHT22;690;51.454;7.194;2022-12-04T14:52:52;5.30;1.00
1391;DHT22;690;51.454;7.194;2022-12-04T14:55:28;5.20;1.00
1391;DHT22;690;51.454;7.194;2022-12-04T14:57:58;5.20;1.00
1391;DHT22;690;51.454;7.194;2022-12-04T15:00:25;5.20;1.00
1391;DHT22;690;51.454;7.194;2022-12-04T15:02:55;5.20;1.00
1391;DHT22;690;51.454;7.194;2022-12-04T15:05:25;5.20;1.00
1391;DHT22;690;51.454;7.194;2022-12-04T15:07:55;5.20;1.00
1391;DHT22;690;51.454;7.194;2022-12-04T15:10:24;5.20;1.00
1391;DHT22;690;51.454;7.194;2022-12-04T15:13:24;5.20;1.00
1391;DHT22;690;51.454;7.194;2022-12-04T15:15:52;5.20;1.00
1391;DHT22;690;51.454;7.194;2022-12-04T15:18:20;5.30;1.00
1391;DHT22;690;51.454;7.194;2022-12-04T15:20:54;5.20;1.00
1391;DHT22;690;51.454;7.194;2022-12-04T15:23:27;5.20;1.00
1391;DHT22;690;51.454;7.194;2022-12-04T15:25:55;5.20;1.00
1391;DHT22;690;51.454;7.194;2022-12-04T15:28:26;5.20;1.00
1391;DHT22;690;51.454;7.194;2022-12-04T15:30:55;5.20;1.00
1391;DHT22;690;51.454;7.194;2022-12-04T15:33:26;5.20;1.00
1391;DHT22;690;51.454;7.194;2022-12-04T15:35:58;5.20;1.00
1391;DHT22;690;51.454;7.194;2022-12-04T15:38:26;5.30;1.00
1391;DHT22;690;51.454;7.194;2022-12-04T15:40:55;5.30;1.00
1391;DHT22;690;51.454;7.194;2022-12-04T15:43:26;5.30;1.00
1391;DHT22;690;51.454;7.194;2022-12-04T15:45:53;5.20;1.00
1391;DHT22;690;51.454;7.194;2022-12-04T15:48:26;5.20;1.00
1391;DHT22;690;51.454;7.194;2022-12-04T15:50:59;5.20;1.00
1391;DHT22;690;51.454;7.194;2022-12-04T15:53:29;5.20;1.00
1391;DHT22;690;51.454;7.194;2022-12-04T15:56:00;5.20;1.00
1391;DHT22;690;51.454;7.194;2022-12-04T15:58:29;5.20;1.00
1391;DHT22;690;51.454;7.194;2022-12-04T16:00:58;5.20;1.00
1391;DHT22;690;51.454;7.194;2022-12-04T16:03:29;5.20;1.00
1391;DHT22;690;51.454;7.194;2022-12-04T16:06:06;5.20;1.00
1391;DHT22;690;51.454;7.194;2022-12-04T16:08:35;5.30;1.00
1391;DHT22;690;51.454;7.194;2022-12-04T16:11:04;5.30;1.00
1391;DHT22;690;51.454;7.194;2022-12-04T16:13:33;5.20;1.00
1391;DHT22;690;51.454;7.194;2022-12-04T16:16:04;5.20;1.00
1391;DHT22;690;51.454;7.194;2022-12-04T16:18:33;5.20;1.00
1391;DHT22;690;51.454;7.194;2022-12-04T16:21:00;5.30;1.00
1391;DHT22;690;51.454;7.194;2022-12-04T16:23:27;5.30;1.00
1391;DHT22;690;51.454;7.194;2022-12-04T16:25:55;5.30;1.00
1391;DHT22;690;51.454;7.194;2022-12-04T16:28:21;5.20;1.00
1391;DHT22;690;51.454;7.194;2022-12-04T16:30:49;5.30;1.00
1391;DHT22;690;51.454;7.194;2022-12-04T16:33:17;5.30;1.00
1391;DHT22;690;51.454;7.194;2022-12-04T16:35:45;5.30;1.00
1391;DHT22;690;51.454;7.194;2022-12-04T16:38:14;5.30;1.00
1391;DHT22;690;51.454;7.194;2022-12-04T16:40:42;5.40;1.00
1391;DHT22;690;51.454;7.194;2022-12-04T16:43:11;5.40;1.00
1391;DHT22;690;51.454;7.194;2022-12-04T16:45:43;5.40;1.00
1391;DHT22;690;51.454;7.194;2022-12-04T16:48:10;5.40;1.00
1391;DHT22;690;51.454;7.194;2022-12-04T16:50:37;5.40;1.00
1391;DHT22;690;51.454;7.194;2022-12-04T16:53:05;5.40;1.00
1391;DHT22;690;51.454;7.194;2022-12-04T16:55:34;5.40;1.00
1391;DHT22;690;51.454;7.194;2022-12-04T16:58:02;5.40;1.00
1391;DHT22;690;51.454;7.194;2022-12-04T17:00:29;5.40;1.00
1391;DHT22;690;51.454;7.194;2022-12-04T17:02:56;5.40;1.00
1391;DHT22;690;51.454;7.194;2022-12-04T17:05:25;5.30;1.00
1391;DHT22;690;51.454;7.194;2022-12-04T17:07:53;5.30;1.00
1391;DHT22;690;51.454;7.194;2022-12-04T17:10:21;5.30;1.00
1391;DHT22;690;51.454;7.194;2022-12-04T17:12:51;5.30;1.00
1391;DHT22;690;51.454;7.194;2022-12-04T17:15:18;5.20;1.00
1391;DHT22;690;51.454;7.194;2022-12-04T17:17:45;5.20;1.00
1391;DHT22;690;51.454;7.194;2022-12-04T17:20:13;5.20;1.00